createdAt,value
2022-10-23T00:00:00.149Z,13.10
2022-10-23T00:02:02.566Z,13.10
2022-10-23T00:04:07.368Z,13.10
2022-10-23T00:06:09.509Z,13.10
2022-10-23T00:08:11.253Z,13.20
2022-10-23T00:10:12.910Z,13.30
2022-10-23T00:12:14.597Z,13.30
2022-10-23T00:14:22.097Z,13.20
2022-10-23T00:16:23.814Z,13.10
2022-10-23T00:18:25.446Z,13.10
2022-10-23T00:20:27.049Z,13.10
2022-10-23T00:22:28.767Z,13.10
2022-10-23T00:24:30.389Z,13.00
2022-10-23T00:26:32.062Z,12.90
2022-10-23T00:28:34.641Z,12.90
2022-10-23T00:30:36.374Z,12.80
2022-10-23T00:32:38.233Z,12.70
2022-10-23T00:34:39.874Z,12.60
2022-10-23T00:36:41.622Z,12.60
2022-10-23T00:38:43.474Z,12.50
2022-10-23T00:40:47.130Z,12.40
2022-10-23T00:42:48.892Z,12.40
2022-10-23T00:44:50.553Z,12.30
2022-10-23T00:46:52.162Z,12.20
2022-10-23T00:48:53.863Z,12.20
2022-10-23T00:50:55.890Z,12.10
2022-10-23T00:53:01.902Z,12.00
2022-10-23T00:55:03.933Z,12.00
2022-10-23T00:57:08.580Z,12.10
2022-10-23T00:59:10.707Z,12.10
2022-10-23T01:01:21.340Z,12.10
2022-10-23T01:03:27.509Z,12.20
2022-10-23T01:05:36.156Z,12.20
2022-10-23T01:07:56.274Z,12.30
2022-10-23T01:10:19.217Z,12.40
2022-10-23T01:12:39.656Z,12.40
2022-10-23T01:15:11.211Z,12.50
2022-10-23T01:17:30.493Z,12.60
2022-10-23T01:19:59.239Z,12.60
2022-10-23T01:22:16.937Z,12.70
2022-10-23T01:24:54.222Z,12.60
2022-10-23T01:27:10.110Z,12.50
2022-10-23T01:29:21.053Z,12.50
2022-10-23T01:31:33.395Z,12.50
2022-10-23T01:33:44.304Z,12.50
2022-10-23T01:36:05.832Z,12.50
2022-10-23T01:38:18.530Z,12.40
2022-10-23T01:40:29.185Z,12.40
2022-10-23T01:42:36.552Z,12.30
2022-10-23T01:44:59.074Z,12.30
2022-10-23T01:47:03.858Z,12.30
2022-10-23T01:49:10.149Z,12.40
2022-10-23T01:51:14.243Z,12.40
2022-10-23T01:53:16.854Z,12.50
2022-10-23T01:55:18.689Z,12.50
2022-10-23T01:57:22.267Z,12.50
2022-10-23T01:59:30.243Z,12.60
2022-10-23T02:01:34.677Z,12.70
2022-10-23T02:03:38.441Z,12.70
2022-10-23T02:05:40.140Z,12.70
2022-10-23T02:07:42.242Z,12.70
2022-10-23T02:09:44.184Z,12.80
2022-10-23T02:11:54.920Z,12.90
2022-10-23T02:14:09.273Z,12.80
2022-10-23T02:16:50.038Z,12.80
2022-10-23T02:19:02.565Z,12.80
2022-10-23T02:21:12.166Z,12.70
2022-10-23T02:23:25.026Z,12.70
2022-10-23T02:25:39.495Z,12.60
2022-10-23T02:27:48.933Z,12.50
2022-10-23T02:29:55.331Z,12.40
2022-10-23T02:31:57.075Z,12.40
2022-10-23T02:33:58.689Z,12.30
2022-10-23T02:36:01.293Z,12.20
2022-10-23T02:38:03.036Z,12.20
2022-10-23T02:40:05.397Z,12.20
2022-10-23T02:42:13.390Z,12.10
2022-10-23T02:44:37.536Z,12.20
2022-10-23T02:47:08.706Z,12.10
2022-10-23T02:49:34.492Z,12.20
2022-10-23T02:52:08.526Z,12.20
2022-10-23T02:54:29.212Z,12.20
2022-10-23T02:56:36.695Z,12.20
2022-10-23T02:59:05.373Z,12.40
2022-10-23T03:01:17.312Z,12.60
2022-10-23T03:03:48.845Z,12.70
2022-10-23T03:05:50.901Z,12.80
2022-10-23T03:07:52.964Z,12.90
2022-10-23T03:09:54.591Z,12.90
2022-10-23T03:11:56.302Z,12.90
2022-10-23T03:13:57.952Z,12.90
2022-10-23T03:15:59.586Z,12.90
2022-10-23T03:18:01.295Z,12.80
2022-10-23T03:20:03.130Z,12.70
2022-10-23T03:22:04.777Z,12.70
2022-10-23T03:24:06.580Z,12.70
2022-10-23T03:26:08.258Z,12.60
2022-10-23T03:28:09.919Z,12.60
2022-10-23T03:30:11.854Z,12.60
2022-10-23T03:32:13.489Z,12.70
2022-10-23T03:34:15.322Z,12.70
2022-10-23T03:36:16.989Z,12.70
2022-10-23T03:38:18.688Z,12.60
2022-10-23T03:40:20.407Z,12.60
2022-10-23T03:42:22.229Z,12.60
2022-10-23T03:44:23.846Z,12.60
2022-10-23T03:46:25.568Z,12.60
2022-10-23T03:48:27.318Z,12.60
2022-10-23T03:50:28.941Z,12.60
2022-10-23T03:52:30.712Z,12.70
2022-10-23T03:54:33.764Z,12.70
2022-10-23T03:56:35.678Z,12.70
2022-10-23T03:58:37.400Z,12.70
2022-10-23T04:00:39.070Z,12.70
2022-10-23T04:02:41.110Z,12.70
2022-10-23T04:04:42.961Z,12.80
2022-10-23T04:06:44.866Z,12.80
2022-10-23T04:08:46.630Z,12.80
2022-10-23T04:10:48.420Z,12.80
2022-10-23T04:12:50.046Z,12.80
2022-10-23T04:14:51.866Z,12.80
2022-10-23T04:16:53.641Z,12.80
2022-10-23T04:18:55.320Z,12.80
2022-10-23T04:20:56.929Z,12.90
2022-10-23T04:22:58.580Z,12.90
2022-10-23T04:25:00.315Z,13.00
2022-10-23T04:27:02.122Z,13.10
2022-10-23T04:29:03.815Z,13.10
2022-10-23T04:31:05.613Z,13.10
2022-10-23T04:33:07.329Z,13.20
2022-10-23T04:35:09.087Z,13.20
2022-10-23T04:37:10.711Z,13.30
2022-10-23T04:39:12.854Z,13.30
2022-10-23T04:41:14.504Z,13.30
2022-10-23T04:43:16.124Z,13.40
2022-10-23T04:45:17.864Z,13.40
2022-10-23T04:47:19.592Z,13.50
2022-10-23T04:49:21.400Z,13.50
2022-10-23T04:51:23.304Z,13.50
2022-10-23T04:53:25.549Z,13.50
2022-10-23T04:55:27.223Z,13.50
2022-10-23T04:57:28.847Z,13.50
2022-10-23T04:59:30.645Z,13.50
2022-10-23T05:01:32.370Z,13.50
2022-10-23T05:03:34.016Z,13.50
2022-10-23T05:05:35.657Z,13.40
2022-10-23T05:07:37.952Z,13.40
2022-10-23T05:09:39.600Z,13.40
2022-10-23T05:11:41.227Z,13.40
2022-10-23T05:13:42.845Z,13.50
2022-10-23T05:15:44.451Z,13.60
2022-10-23T05:17:50.063Z,13.60
2022-10-23T05:19:54.461Z,13.60
2022-10-23T05:21:56.907Z,13.60
2022-10-23T05:26:05.529Z,13.50
2022-10-23T05:28:07.418Z,13.40
2022-10-23T05:30:09.950Z,13.40
2022-10-23T05:32:14.351Z,13.30
2022-10-23T05:34:19.879Z,13.30
2022-10-23T05:36:23.604Z,13.30
2022-10-23T05:38:26.628Z,13.30
2022-10-23T05:40:28.417Z,13.30
2022-10-23T05:42:30.233Z,13.20
2022-10-23T05:44:31.897Z,13.20
2022-10-23T05:46:33.533Z,13.20
2022-10-23T05:48:35.614Z,13.10
2022-10-23T05:50:37.826Z,13.10
2022-10-23T05:52:39.590Z,13.10
2022-10-23T05:54:42.070Z,13.10
2022-10-23T05:56:44.014Z,13.00
2022-10-23T05:58:46.141Z,13.00
2022-10-23T06:00:47.809Z,13.00
2022-10-23T06:02:49.433Z,13.00
2022-10-23T06:04:51.059Z,13.00
2022-10-23T06:06:52.736Z,13.00
2022-10-23T06:08:54.707Z,13.00
2022-10-23T06:10:56.425Z,12.90
2022-10-23T06:12:58.053Z,12.90
2022-10-23T06:14:59.735Z,12.80
2022-10-23T06:17:01.395Z,12.80
2022-10-23T06:19:03.297Z,12.80
2022-10-23T06:21:05.314Z,12.90
2022-10-23T06:23:07.843Z,12.90
2022-10-23T06:25:09.615Z,13.00
2022-10-23T06:27:11.264Z,13.10
2022-10-23T06:29:12.857Z,13.10
2022-10-23T06:31:16.483Z,13.20
2022-10-23T06:33:18.229Z,13.30
2022-10-23T06:35:19.831Z,13.40
2022-10-23T06:37:21.445Z,13.60
2022-10-23T06:39:24.377Z,13.60
2022-10-23T06:41:27.823Z,13.60
2022-10-23T06:43:29.870Z,13.70
2022-10-23T06:45:33.981Z,13.70
2022-10-23T06:47:35.637Z,13.70
2022-10-23T06:49:37.302Z,13.70
2022-10-23T06:51:38.929Z,13.70
2022-10-23T06:53:40.663Z,13.70
2022-10-23T06:55:42.298Z,13.80
2022-10-23T06:57:44.585Z,13.80
2022-10-23T06:59:46.421Z,13.90
2022-10-23T07:01:48.194Z,14.00
2022-10-23T07:03:50.010Z,14.10
2022-10-23T07:05:51.630Z,14.10
2022-10-23T07:07:53.230Z,14.20
2022-10-23T07:09:54.837Z,14.20
2022-10-23T07:11:56.725Z,14.30
2022-10-23T07:13:58.356Z,14.40
2022-10-23T07:16:00.112Z,14.50
2022-10-23T07:18:01.809Z,14.70
2022-10-23T07:20:03.916Z,14.80
2022-10-23T07:22:05.839Z,15.00
2022-10-23T07:24:07.632Z,15.20
2022-10-23T07:26:11.824Z,15.40
2022-10-23T07:28:13.505Z,15.50
2022-10-23T07:30:15.453Z,15.80
2022-10-23T07:32:17.302Z,15.90
2022-10-23T07:34:18.981Z,16.00
2022-10-23T07:36:20.703Z,16.00
2022-10-23T07:38:22.446Z,16.00
2022-10-23T07:40:24.355Z,16.10
2022-10-23T07:42:25.969Z,16.10
2022-10-23T07:44:27.940Z,16.20
2022-10-23T07:46:29.837Z,16.20
2022-10-23T07:48:31.765Z,16.30
2022-10-23T07:50:33.472Z,16.40
2022-10-23T07:52:36.269Z,16.70
2022-10-23T07:54:37.894Z,17.00
2022-10-23T07:56:39.537Z,17.30
2022-10-23T07:58:41.369Z,17.90
2022-10-23T08:00:43.064Z,18.20
2022-10-23T08:02:45.029Z,18.60
2022-10-23T08:04:49.760Z,18.80
2022-10-23T08:06:51.509Z,19.00
2022-10-23T08:08:53.225Z,19.20
2022-10-23T08:10:55.487Z,19.50
2022-10-23T08:12:57.145Z,19.60
2022-10-23T08:14:58.760Z,19.80
2022-10-23T08:19:08.049Z,20.90
2022-10-23T08:21:10.270Z,21.20
2022-10-23T08:23:13.045Z,21.40
2022-10-23T08:25:14.877Z,21.40
2022-10-23T08:27:16.667Z,21.40
2022-10-23T08:29:18.534Z,21.80
2022-10-23T08:31:21.285Z,22.50
2022-10-23T08:33:23.675Z,23.00
2022-10-23T08:35:25.405Z,23.00
2022-10-23T08:37:27.210Z,23.20
2022-10-23T08:39:28.909Z,23.50
2022-10-23T08:41:37.330Z,23.80
2022-10-23T08:43:53.087Z,24.40
2022-10-23T08:46:00.006Z,24.80
2022-10-23T08:48:23.651Z,25.00
2022-10-23T08:50:49.284Z,25.00
2022-10-23T08:53:03.164Z,24.60
2022-10-23T08:55:24.450Z,23.80
2022-10-23T08:57:34.432Z,23.00
2022-10-23T08:59:40.438Z,22.60
2022-10-23T09:01:45.931Z,22.20
2022-10-23T09:03:47.667Z,22.10
2022-10-23T09:06:24.347Z,22.10
2022-10-23T09:08:42.123Z,21.90
2022-10-23T09:10:52.321Z,21.80
2022-10-23T09:13:00.514Z,21.70
2022-10-23T09:15:10.903Z,21.70
2022-10-23T09:17:15.597Z,22.20
2022-10-23T09:19:19.898Z,22.90
2022-10-23T09:21:27.279Z,23.80
2022-10-23T09:23:28.947Z,24.80
2022-10-23T09:25:41.471Z,25.50
2022-10-23T09:27:51.858Z,25.60
2022-10-23T09:29:56.777Z,26.00
2022-10-23T09:32:03.285Z,26.30
2022-10-23T09:34:06.489Z,26.90
2022-10-23T09:36:15.921Z,26.90
2022-10-23T09:38:26.739Z,27.30
2022-10-23T09:40:44.186Z,27.60
2022-10-23T09:42:58.763Z,28.00
2022-10-23T09:45:01.905Z,28.40
2022-10-23T09:47:06.372Z,28.90
2022-10-23T09:49:31.059Z,29.50
2022-10-23T09:51:33.081Z,29.20
2022-10-23T09:53:50.420Z,28.60
2022-10-23T09:55:55.561Z,28.30
2022-10-23T09:57:57.388Z,28.30
2022-10-23T10:00:04.338Z,28.10
2022-10-23T10:02:25.595Z,27.80
2022-10-23T10:04:35.738Z,27.20
2022-10-23T10:06:37.442Z,26.70
2022-10-23T10:08:51.571Z,26.60
2022-10-23T10:11:18.272Z,26.90
2022-10-23T10:13:36.592Z,27.50
2022-10-23T10:15:52.790Z,27.70
2022-10-23T10:18:17.517Z,27.60
2022-10-23T10:20:41.234Z,27.40
2022-10-23T10:23:14.909Z,26.70
2022-10-23T10:25:19.410Z,25.80
2022-10-23T10:27:40.029Z,25.30
2022-10-23T10:29:54.543Z,24.60
2022-10-23T10:32:31.951Z,24.30
2022-10-23T10:35:02.832Z,24.10
2022-10-23T10:37:25.038Z,23.80
2022-10-23T10:39:53.284Z,23.20
2022-10-23T10:42:21.862Z,23.40
2022-10-23T10:45:05.755Z,23.70
2022-10-23T10:47:18.493Z,24.50
2022-10-23T10:49:38.308Z,25.10
2022-10-23T10:52:10.943Z,25.50
2022-10-23T10:54:39.206Z,25.90
2022-10-23T10:56:44.078Z,26.00
2022-10-23T10:59:27.271Z,25.70
2022-10-23T11:01:45.651Z,25.40
2022-10-23T11:03:52.533Z,24.60
2022-10-23T11:05:56.065Z,24.10
2022-10-23T11:08:24.818Z,23.90
2022-10-23T11:10:27.359Z,23.30
2022-10-23T11:12:29.531Z,23.10
2022-10-23T11:14:33.733Z,22.90
2022-10-23T11:16:39.563Z,22.70
2022-10-23T11:18:50.890Z,22.70
2022-10-23T11:21:08.322Z,22.70
2022-10-23T11:23:19.025Z,22.80
2022-10-23T11:25:32.398Z,22.80
2022-10-23T11:28:08.537Z,22.90
2022-10-23T11:30:33.632Z,22.90
2022-10-23T11:33:12.726Z,22.80
2022-10-23T11:35:31.369Z,22.70
2022-10-23T11:37:33.278Z,22.60
2022-10-23T11:39:39.103Z,22.40
2022-10-23T11:41:50.166Z,22.30
2022-10-23T11:43:57.204Z,22.00
2022-10-23T11:46:10.879Z,22.00
2022-10-23T11:48:34.898Z,21.90
2022-10-23T11:50:46.073Z,21.80
2022-10-23T11:53:13.541Z,21.70
2022-10-23T11:55:19.442Z,21.60
2022-10-23T11:57:21.484Z,21.50
2022-10-23T11:59:31.757Z,21.50
2022-10-23T12:01:45.590Z,21.30
2022-10-23T12:03:59.430Z,21.20
2022-10-23T12:06:04.992Z,20.90
2022-10-23T12:08:19.599Z,20.80
2022-10-23T12:10:30.134Z,20.90
2022-10-23T12:12:40.877Z,21.00
2022-10-23T12:14:48.708Z,21.10
2022-10-23T12:16:50.434Z,21.20
2022-10-23T12:18:53.964Z,21.20
2022-10-23T12:20:58.685Z,21.40
2022-10-23T12:23:13.848Z,21.50
2022-10-23T12:25:20.477Z,21.70
2022-10-23T12:27:39.431Z,21.80
2022-10-23T12:29:49.846Z,21.90
2022-10-23T12:32:16.696Z,22.10
2022-10-23T12:34:46.090Z,22.10
2022-10-23T12:36:55.137Z,22.00
2022-10-23T12:38:58.612Z,22.00
2022-10-23T12:41:12.978Z,22.00
2022-10-23T12:43:36.460Z,22.00
2022-10-23T12:45:40.723Z,22.10
2022-10-23T12:47:45.185Z,22.10
2022-10-23T12:49:50.989Z,22.20
2022-10-23T12:52:04.120Z,22.30
2022-10-23T12:54:19.135Z,22.40
2022-10-23T12:56:21.475Z,22.60
2022-10-23T12:58:26.726Z,22.70
2022-10-23T13:00:28.598Z,22.60
2022-10-23T13:02:32.115Z,22.90
2022-10-23T13:04:35.389Z,23.10
2022-10-23T13:06:41.079Z,23.50
2022-10-23T13:08:45.898Z,24.10
2022-10-23T13:10:49.000Z,24.50
2022-10-23T13:13:00.306Z,24.90
2022-10-23T13:15:07.993Z,25.40
2022-10-23T13:17:11.782Z,25.60
2022-10-23T13:19:25.842Z,26.00
2022-10-23T13:21:29.173Z,26.40
2022-10-23T13:23:35.989Z,26.50
2022-10-23T13:25:39.262Z,26.70
2022-10-23T13:27:41.069Z,26.70
2022-10-23T13:29:42.867Z,27.00
2022-10-23T13:31:44.584Z,27.30
2022-10-23T13:34:14.245Z,27.70
2022-10-23T13:36:16.606Z,28.10
2022-10-23T13:38:32.140Z,28.30
2022-10-23T13:40:33.891Z,27.80
2022-10-23T13:42:36.077Z,27.10
2022-10-23T13:44:38.160Z,26.40
2022-10-23T13:46:40.471Z,25.60
2022-10-23T13:48:42.248Z,24.40
2022-10-23T13:50:43.864Z,23.70
2022-10-23T13:52:46.449Z,23.20
2022-10-23T13:54:48.221Z,22.40
2022-10-23T13:56:50.411Z,22.30
2022-10-23T13:58:52.597Z,22.30
2022-10-23T14:00:54.544Z,22.30
2022-10-23T14:02:56.452Z,22.20
2022-10-23T14:04:58.074Z,22.00
2022-10-23T14:06:59.714Z,21.80
2022-10-23T14:09:01.501Z,21.80
2022-10-23T14:11:03.212Z,21.50
2022-10-23T14:13:04.888Z,21.40
2022-10-23T14:15:07.589Z,21.20
2022-10-23T14:17:09.242Z,21.10
2022-10-23T14:19:11.834Z,21.00
2022-10-23T14:21:16.240Z,20.90
2022-10-23T14:23:17.930Z,20.80
2022-10-23T14:25:19.714Z,20.70
2022-10-23T14:27:21.323Z,20.60
2022-10-23T14:29:24.349Z,20.50
2022-10-23T14:31:26.766Z,20.30
2022-10-23T14:33:28.393Z,20.20
2022-10-23T14:35:30.299Z,20.10
2022-10-23T14:37:32.410Z,20.20
2022-10-23T14:39:34.038Z,20.20
2022-10-23T14:41:35.673Z,20.20
2022-10-23T14:43:37.776Z,20.10
2022-10-23T14:45:39.432Z,20.10
2022-10-23T14:47:41.351Z,20.00
2022-10-23T14:49:44.714Z,19.90
2022-10-23T14:51:46.334Z,19.90
2022-10-23T14:53:49.057Z,19.80
2022-10-23T14:55:51.018Z,19.70
2022-10-23T14:57:56.206Z,19.70
2022-10-23T14:59:57.951Z,19.70
2022-10-23T15:01:59.873Z,19.70
2022-10-23T15:04:01.505Z,19.70
2022-10-23T15:06:04.262Z,19.60
2022-10-23T15:08:06.012Z,19.60
2022-10-23T15:10:11.469Z,19.50
2022-10-23T15:12:13.361Z,19.60
2022-10-23T15:14:15.109Z,19.50
2022-10-23T15:16:17.171Z,19.50
2022-10-23T15:18:19.630Z,19.50
2022-10-23T15:20:21.353Z,19.50
2022-10-23T15:22:23.067Z,19.50
2022-10-23T15:24:24.775Z,19.50
2022-10-23T15:26:26.473Z,19.60
2022-10-23T15:28:29.299Z,19.70
2022-10-23T15:30:31.030Z,19.70
2022-10-23T15:32:32.662Z,19.70
2022-10-23T15:34:34.370Z,19.80
2022-10-23T15:36:36.077Z,19.90
2022-10-23T15:38:37.710Z,19.90
2022-10-23T15:40:39.353Z,19.90
2022-10-23T15:42:41.418Z,19.90
2022-10-23T15:44:43.281Z,19.90
2022-10-23T15:46:45.113Z,19.90
2022-10-23T15:48:46.902Z,19.90
2022-10-23T15:50:48.812Z,20.00
2022-10-23T15:52:50.810Z,20.10
2022-10-23T15:54:52.501Z,20.10
2022-10-23T15:56:54.502Z,20.10
2022-10-23T15:58:56.146Z,20.20
2022-10-23T16:00:59.068Z,20.20
2022-10-23T16:03:00.865Z,20.20
2022-10-23T16:05:02.774Z,20.10
2022-10-23T16:07:04.388Z,20.00
2022-10-23T16:09:06.081Z,19.90
2022-10-23T16:11:25.980Z,19.90
2022-10-23T16:13:27.777Z,19.90
2022-10-23T16:15:29.390Z,19.80
2022-10-23T16:17:31.012Z,19.70
2022-10-23T16:19:32.660Z,19.70
2022-10-23T16:21:36.163Z,19.80
2022-10-23T16:23:37.827Z,19.80
2022-10-23T16:25:39.638Z,19.80
2022-10-23T16:27:41.614Z,19.80
2022-10-23T16:29:43.447Z,19.80
2022-10-23T16:31:45.098Z,19.70
2022-10-23T16:33:48.085Z,19.60
2022-10-23T16:35:49.786Z,19.50
2022-10-23T16:37:51.465Z,19.50
2022-10-23T16:39:53.179Z,19.30
2022-10-23T16:41:55.711Z,19.30
2022-10-23T16:43:57.638Z,19.20
2022-10-23T16:46:02.132Z,19.20
2022-10-23T16:48:03.930Z,19.20
2022-10-23T16:50:06.209Z,19.20
2022-10-23T16:52:07.832Z,19.10
2022-10-23T16:54:10.026Z,19.20
2022-10-23T16:56:15.266Z,19.20
2022-10-23T16:58:16.902Z,19.30
2022-10-23T17:00:21.826Z,19.30
2022-10-23T17:02:23.656Z,19.30
2022-10-23T17:04:25.438Z,19.30
2022-10-23T17:06:30.463Z,19.30
2022-10-23T17:08:32.321Z,19.30
2022-10-23T17:10:34.143Z,19.30
2022-10-23T17:12:36.183Z,19.40
2022-10-23T17:14:38.784Z,19.50
2022-10-23T17:16:44.617Z,19.50
2022-10-23T17:18:46.653Z,19.60
2022-10-23T17:20:57.042Z,19.70
2022-10-23T17:22:58.697Z,19.70
2022-10-23T17:25:00.397Z,19.70
2022-10-23T17:27:02.082Z,19.80
2022-10-23T17:29:06.981Z,19.80
2022-10-23T17:31:12.789Z,19.70
2022-10-23T17:33:14.485Z,19.70
2022-10-23T17:35:16.303Z,19.60
2022-10-23T17:37:17.934Z,19.60
2022-10-23T17:39:22.932Z,19.50
2022-10-23T17:41:25.409Z,19.50
2022-10-23T17:43:27.017Z,19.50
2022-10-23T17:45:28.893Z,19.50
2022-10-23T17:47:31.016Z,19.60
2022-10-23T17:49:32.663Z,19.50
2022-10-23T17:51:35.542Z,19.50
2022-10-23T17:53:38.819Z,19.60
2022-10-23T17:55:41.527Z,19.50
2022-10-23T17:57:43.504Z,19.60
2022-10-23T17:59:45.353Z,19.50
2022-10-23T18:01:48.223Z,19.50
2022-10-23T18:03:50.792Z,19.60
2022-10-23T18:05:52.612Z,19.70
2022-10-23T18:07:55.417Z,19.70
2022-10-23T18:09:57.086Z,19.60
2022-10-23T18:11:58.721Z,19.60
2022-10-23T18:14:01.318Z,19.70
2022-10-23T18:16:05.589Z,19.60
2022-10-23T18:18:07.931Z,19.60
2022-10-23T18:20:11.815Z,19.60
2022-10-23T18:22:13.518Z,19.50
2022-10-23T18:24:15.918Z,19.50
2022-10-23T18:26:24.183Z,19.40
2022-10-23T18:28:27.512Z,19.40
2022-10-23T18:30:29.381Z,19.40
2022-10-23T18:32:31.114Z,19.40
2022-10-23T18:34:32.733Z,19.40
2022-10-23T18:36:38.768Z,19.30
2022-10-23T18:38:40.686Z,19.30
2022-10-23T18:40:43.609Z,19.20
2022-10-23T18:42:45.575Z,19.20
2022-10-23T18:44:49.960Z,19.20
2022-10-23T18:46:51.935Z,19.10
2022-10-23T18:48:53.736Z,19.00
2022-10-23T18:50:55.393Z,19.00
2022-10-23T18:52:57.213Z,19.00
2022-10-23T18:54:59.018Z,19.00
2022-10-23T18:57:00.713Z,19.00
2022-10-23T18:59:04.408Z,18.90
2022-10-23T19:01:06.330Z,18.90
2022-10-23T19:03:13.179Z,18.70
2022-10-23T19:05:14.814Z,18.70
2022-10-23T19:07:16.502Z,18.60
2022-10-23T19:09:19.046Z,18.50
2022-10-23T19:11:22.242Z,18.40
2022-10-23T19:13:23.863Z,18.30
2022-10-23T19:15:25.716Z,18.30
2022-10-23T19:17:32.656Z,18.20
2022-10-23T19:19:47.405Z,18.10
2022-10-23T19:21:50.372Z,18.00
2022-10-23T19:23:52.444Z,17.90
2022-10-23T19:25:54.314Z,17.90
2022-10-23T19:27:57.034Z,17.90
2022-10-23T19:30:03.287Z,17.80
2022-10-23T19:32:05.406Z,17.80
2022-10-23T19:34:07.064Z,17.80
2022-10-23T19:36:13.868Z,17.80
2022-10-23T19:38:15.890Z,17.90
2022-10-23T19:40:17.902Z,17.90
2022-10-23T19:42:19.601Z,17.90
2022-10-23T19:44:21.526Z,17.90
2022-10-23T19:46:23.213Z,17.80
2022-10-23T19:48:24.892Z,17.80
2022-10-23T19:50:28.013Z,17.80
2022-10-23T19:52:29.685Z,17.70
2022-10-23T19:54:31.474Z,17.70
2022-10-23T19:56:33.124Z,17.70
2022-10-23T19:58:35.011Z,17.80
2022-10-23T20:00:37.078Z,17.80
2022-10-23T20:02:38.822Z,17.80
2022-10-23T20:04:40.601Z,17.90
2022-10-23T20:06:42.259Z,17.80
2022-10-23T20:08:43.918Z,17.80
2022-10-23T20:10:47.880Z,17.80
2022-10-23T20:12:56.899Z,17.80
2022-10-23T20:15:10.328Z,17.90
2022-10-23T20:17:11.942Z,18.00
2022-10-23T20:21:22.605Z,18.30
2022-10-23T20:23:24.426Z,18.40
2022-10-23T20:25:26.920Z,18.40
2022-10-23T20:27:28.699Z,18.40
2022-10-23T20:29:30.456Z,18.40
2022-10-23T20:31:33.208Z,18.40
2022-10-23T20:33:36.649Z,18.30
2022-10-23T20:35:40.151Z,18.30
2022-10-23T20:37:42.051Z,18.30
2022-10-23T20:39:44.320Z,18.30
2022-10-23T20:41:46.626Z,18.30
2022-10-23T20:43:48.415Z,18.30
2022-10-23T20:45:50.113Z,18.30
2022-10-23T20:47:51.775Z,18.30
2022-10-23T20:49:53.393Z,18.30
2022-10-23T20:51:56.741Z,18.40
2022-10-23T20:53:58.440Z,18.50
2022-10-23T20:56:00.081Z,18.50
2022-10-23T20:58:01.822Z,18.50
2022-10-23T21:00:05.614Z,18.50
2022-10-23T21:02:07.508Z,18.40
2022-10-23T21:04:12.984Z,18.50
2022-10-23T21:06:16.448Z,18.50
2022-10-23T21:08:18.133Z,18.40
2022-10-23T21:10:19.754Z,18.40
2022-10-23T21:12:21.375Z,18.40
2022-10-23T21:14:23.572Z,18.40
2022-10-23T21:16:31.277Z,18.40
2022-10-23T21:18:45.494Z,18.40
2022-10-23T21:20:47.971Z,18.40
2022-10-23T21:22:54.160Z,18.50
2022-10-23T21:24:57.139Z,18.40
2022-10-23T21:26:58.758Z,18.40
2022-10-23T21:29:17.521Z,18.40
2022-10-23T21:31:20.770Z,18.40
2022-10-23T21:33:22.486Z,18.30
2022-10-23T21:35:25.424Z,18.30
2022-10-23T21:37:29.504Z,18.30
2022-10-23T21:39:31.278Z,18.30
2022-10-23T21:41:34.381Z,18.40
2022-10-23T21:43:36.240Z,18.40
2022-10-23T21:45:37.861Z,18.40
2022-10-23T21:47:39.721Z,18.30
2022-10-23T21:49:41.387Z,18.40
2022-10-23T21:51:43.149Z,18.40
2022-10-23T21:53:44.774Z,18.50
2022-10-23T21:55:46.434Z,18.50
2022-10-23T21:57:48.073Z,18.50
2022-10-23T21:59:49.865Z,18.50
2022-10-23T22:01:51.929Z,18.50
2022-10-23T22:03:54.404Z,18.50
2022-10-23T22:05:57.936Z,18.50
2022-10-23T22:07:59.585Z,18.50
2022-10-23T22:10:01.362Z,18.50
2022-10-23T22:12:03.063Z,18.50
2022-10-23T22:14:04.900Z,18.50
2022-10-23T22:16:07.350Z,18.60
2022-10-23T22:18:08.992Z,18.50
2022-10-23T22:20:11.249Z,18.50
2022-10-23T22:22:13.108Z,18.50
2022-10-23T22:24:15.839Z,18.50
2022-10-23T22:26:23.035Z,18.50
2022-10-23T22:28:24.932Z,18.50
2022-10-23T22:30:26.609Z,18.40
2022-10-23T22:32:28.232Z,18.40
2022-10-23T22:36:53.253Z,18.40
2022-10-23T22:38:56.008Z,18.40
2022-10-23T22:40:59.872Z,18.40
2022-10-23T22:43:01.692Z,18.40
2022-10-23T22:45:03.475Z,18.30
2022-10-23T22:47:05.292Z,18.30
2022-10-23T22:49:07.464Z,18.30
2022-10-23T22:51:14.368Z,18.30
2022-10-23T22:53:16.697Z,18.30
2022-10-23T22:55:18.484Z,18.30
2022-10-23T22:57:20.329Z,18.30
2022-10-23T22:59:21.968Z,18.20
2022-10-23T23:01:27.079Z,18.20
2022-10-23T23:03:28.820Z,18.20
2022-10-23T23:05:30.490Z,18.20
2022-10-23T23:07:32.161Z,18.20
2022-10-23T23:09:36.825Z,18.10
2022-10-23T23:11:45.868Z,18.10
2022-10-23T23:13:53.994Z,18.10
2022-10-23T23:15:56.297Z,18.10
2022-10-23T23:17:58.255Z,18.10
2022-10-23T23:19:59.930Z,18.20
2022-10-23T23:22:01.633Z,18.10
2022-10-23T23:24:03.574Z,18.10
2022-10-23T23:26:06.536Z,18.10
2022-10-23T23:28:08.353Z,18.00
2022-10-23T23:30:10.428Z,18.00
2022-10-23T23:32:12.154Z,18.00
2022-10-23T23:34:13.869Z,17.80
2022-10-23T23:36:20.177Z,17.80
2022-10-23T23:38:21.822Z,17.80
2022-10-23T23:40:23.513Z,17.70
2022-10-23T23:42:25.184Z,17.70
2022-10-23T23:44:26.986Z,17.70
2022-10-23T23:46:28.705Z,17.60
2022-10-23T23:48:30.338Z,17.60
2022-10-23T23:50:32.058Z,17.60
2022-10-23T23:52:33.970Z,17.50
2022-10-23T23:54:35.635Z,17.50
2022-10-23T23:56:37.340Z,17.50
2022-10-23T23:58:39.307Z,17.50
